createdAt,value
2023-08-13T00:01:43.867Z,78.82
2023-08-13T00:04:34.840Z,78.78
2023-08-13T00:07:28.504Z,78.71
2023-08-13T00:10:24.390Z,78.76
2023-08-13T00:13:15.057Z,78.86
2023-08-13T00:16:05.936Z,79.02
2023-08-13T00:18:58.832Z,79.13
2023-08-13T00:22:06.037Z,79.17
2023-08-13T00:24:58.165Z,79.33
2023-08-13T00:27:49.062Z,79.42
2023-08-13T00:30:39.930Z,79.41
2023-08-13T00:33:33.841Z,79.45
2023-08-13T00:36:27.366Z,79.58
2023-08-13T00:39:18.310Z,79.71
2023-08-13T00:42:09.681Z,79.86
2023-08-13T00:45:02.661Z,79.98
2023-08-13T00:47:53.505Z,80.10
2023-08-13T00:50:45.747Z,80.26
2023-08-13T00:53:41.323Z,80.39
2023-08-13T00:56:34.185Z,80.52
2023-08-13T00:59:25.368Z,80.59
2023-08-13T01:02:16.652Z,80.72
2023-08-13T01:05:08.048Z,80.94
2023-08-13T01:08:05.041Z,80.96
2023-08-13T01:10:59.722Z,81.04
2023-08-13T01:13:55.462Z,81.24
2023-08-13T01:16:46.171Z,81.18
2023-08-13T01:19:37.168Z,81.21
2023-08-13T01:22:28.704Z,81.34
2023-08-13T01:25:19.744Z,81.42
2023-08-13T01:28:14.629Z,81.45
2023-08-13T01:31:11.021Z,81.65
2023-08-13T01:34:03.871Z,81.81
2023-08-13T01:36:55.232Z,82.04
2023-08-13T01:39:49.999Z,82.19
2023-08-13T01:42:42.820Z,82.52
2023-08-13T01:45:35.790Z,82.75
2023-08-13T01:48:31.703Z,82.76
2023-08-13T01:51:35.960Z,82.98
2023-08-13T01:54:34.284Z,83.08
2023-08-13T01:57:25.385Z,83.17
2023-08-13T02:00:19.171Z,83.05
2023-08-13T02:03:30.104Z,82.85
2023-08-13T02:06:20.694Z,82.88
2023-08-13T02:09:23.813Z,82.72
2023-08-13T02:12:14.721Z,82.91
2023-08-13T02:15:06.515Z,82.79
2023-08-13T02:17:59.715Z,82.75
2023-08-13T02:20:53.095Z,82.80
2023-08-13T02:23:43.812Z,82.87
2023-08-13T02:26:37.811Z,82.91
2023-08-13T02:29:31.536Z,82.85
2023-08-13T02:32:24.545Z,83.05
2023-08-13T02:35:17.514Z,83.30
2023-08-13T02:38:11.427Z,83.36
2023-08-13T02:41:04.553Z,83.40
2023-08-13T02:43:58.782Z,83.34
2023-08-13T02:47:02.201Z,83.38
2023-08-13T02:50:04.156Z,83.41
2023-08-13T02:52:54.841Z,83.33
2023-08-13T02:55:54.350Z,83.12
2023-08-13T02:58:45.001Z,83.04
2023-08-13T03:01:40.195Z,82.96
2023-08-13T03:04:33.421Z,82.90
2023-08-13T03:07:27.285Z,82.92
2023-08-13T03:10:17.867Z,83.12
2023-08-13T03:13:08.451Z,83.11
2023-08-13T03:15:59.482Z,83.22
2023-08-13T03:18:50.291Z,83.30
2023-08-13T03:21:42.841Z,83.24
2023-08-13T03:24:33.498Z,83.33
2023-08-13T03:27:27.315Z,83.49
2023-08-13T03:30:19.529Z,83.58
2023-08-13T03:33:10.886Z,83.62
2023-08-13T03:36:02.401Z,83.63
2023-08-13T03:38:53.441Z,83.88
2023-08-13T03:41:47.089Z,84.00
2023-08-13T03:44:37.873Z,84.15
2023-08-13T03:47:29.629Z,84.16
2023-08-13T03:50:24.186Z,84.09
2023-08-13T03:53:15.005Z,84.23
2023-08-13T03:56:09.746Z,84.13
2023-08-13T03:59:07.899Z,84.02
2023-08-13T04:02:00.281Z,84.00
2023-08-13T04:04:51.593Z,83.95
2023-08-13T04:07:42.813Z,83.78
2023-08-13T04:10:33.809Z,84.00
2023-08-13T04:13:27.002Z,84.00
2023-08-13T04:16:17.902Z,83.75
2023-08-13T04:19:09.759Z,83.89
2023-08-13T04:22:07.930Z,83.91
2023-08-13T04:24:58.655Z,83.55
2023-08-13T04:27:49.414Z,83.60
2023-08-13T04:30:42.447Z,83.54
2023-08-13T04:33:33.063Z,83.63
2023-08-13T04:36:26.713Z,83.56
2023-08-13T04:39:18.067Z,83.62
2023-08-13T04:42:09.780Z,83.64
2023-08-13T04:45:05.680Z,83.83
2023-08-13T04:47:59.390Z,83.73
2023-08-13T04:50:50.316Z,83.75
2023-08-13T04:53:42.444Z,83.75
2023-08-13T04:56:42.450Z,83.89
2023-08-13T04:59:35.894Z,83.89
2023-08-13T05:02:37.911Z,83.88
2023-08-13T05:05:30.314Z,83.77
2023-08-13T05:08:23.768Z,83.65
2023-08-13T05:11:14.526Z,83.50
2023-08-13T05:14:08.005Z,83.48
2023-08-13T05:16:58.901Z,83.43
2023-08-13T05:19:53.807Z,83.48
2023-08-13T05:22:44.612Z,83.51
2023-08-13T05:25:39.780Z,83.53
2023-08-13T05:28:39.619Z,83.45
2023-08-13T05:31:33.037Z,83.34
2023-08-13T05:34:28.298Z,83.22
2023-08-13T05:37:26.728Z,83.07
2023-08-13T05:40:28.161Z,82.82
2023-08-13T05:43:18.836Z,82.72
2023-08-13T05:46:12.242Z,82.55
2023-08-13T05:49:08.958Z,82.60
2023-08-13T05:52:09.552Z,82.61
2023-08-13T05:55:05.361Z,82.30
2023-08-13T05:57:59.020Z,82.23
2023-08-13T06:00:49.799Z,82.08
2023-08-13T06:03:45.969Z,81.84
2023-08-13T06:06:56.829Z,81.84
2023-08-13T06:09:47.498Z,81.76
2023-08-13T06:12:38.260Z,81.59
2023-08-13T06:15:37.836Z,81.58
2023-08-13T06:18:31.818Z,81.57
2023-08-13T06:21:26.073Z,81.53
2023-08-13T06:24:16.987Z,81.53
2023-08-13T06:27:07.791Z,81.48
2023-08-13T06:30:10.725Z,81.29
2023-08-13T06:33:02.315Z,81.14
2023-08-13T06:35:53.398Z,81.00
2023-08-13T06:38:52.893Z,80.98
2023-08-13T06:41:43.528Z,80.76
2023-08-13T06:44:36.493Z,80.70
2023-08-13T06:47:27.532Z,80.33
2023-08-13T06:50:23.268Z,79.88
2023-08-13T06:53:13.844Z,79.42
2023-08-13T06:56:05.779Z,79.07
2023-08-13T06:58:56.480Z,78.28
2023-08-13T07:01:49.709Z,77.61
2023-08-13T07:04:40.609Z,77.09
2023-08-13T07:07:31.561Z,76.88
2023-08-13T07:10:24.985Z,76.40
2023-08-13T07:13:18.534Z,76.33
2023-08-13T07:16:14.804Z,76.34
2023-08-13T07:19:08.653Z,76.01
2023-08-13T07:21:59.511Z,75.63
2023-08-13T07:24:50.378Z,75.37
2023-08-13T07:27:41.581Z,75.07
2023-08-13T07:30:32.475Z,74.79
2023-08-13T07:33:25.877Z,73.92
2023-08-13T07:36:17.011Z,73.64
2023-08-13T07:39:11.666Z,72.80
2023-08-13T07:42:02.239Z,71.46
2023-08-13T07:44:53.002Z,70.46
2023-08-13T07:47:43.878Z,69.21
2023-08-13T07:50:35.708Z,68.15
2023-08-13T07:53:26.164Z,67.41
2023-08-13T07:56:16.839Z,66.84
2023-08-13T07:59:07.540Z,66.30
2023-08-13T08:01:58.087Z,64.69
2023-08-13T08:04:48.985Z,62.77
2023-08-13T08:07:39.702Z,61.07
2023-08-13T08:10:30.382Z,59.17
2023-08-13T08:13:20.860Z,58.30
2023-08-13T08:16:11.506Z,57.68
2023-08-13T08:19:02.449Z,56.25
2023-08-13T08:21:53.048Z,55.23
2023-08-13T08:24:43.832Z,54.21
2023-08-13T08:27:34.402Z,54.12
2023-08-13T08:30:26.025Z,52.95
2023-08-13T08:33:16.358Z,51.92
2023-08-13T08:36:07.077Z,51.15
2023-08-13T08:38:59.604Z,49.64
2023-08-13T08:41:50.315Z,48.88
2023-08-13T08:44:44.252Z,48.77
2023-08-13T08:47:35.660Z,46.87
2023-08-13T08:50:26.254Z,46.07
2023-08-13T08:53:17.202Z,44.89
2023-08-13T08:56:08.067Z,43.93
2023-08-13T08:58:58.526Z,42.53
2023-08-13T09:01:48.929Z,40.91
2023-08-13T09:04:39.538Z,40.08
2023-08-13T09:07:33.552Z,39.38
2023-08-13T09:10:24.066Z,38.38
2023-08-13T09:13:14.595Z,38.01
2023-08-13T09:16:05.336Z,37.44
2023-08-13T09:19:04.533Z,36.47
2023-08-13T09:22:02.876Z,35.12
2023-08-13T09:24:55.246Z,35.25
2023-08-13T09:27:47.382Z,35.06
2023-08-13T09:30:37.646Z,34.24
2023-08-13T09:33:28.820Z,33.91
2023-08-13T09:36:19.346Z,33.52
2023-08-13T09:39:09.963Z,33.52
2023-08-13T09:42:02.497Z,33.56
2023-08-13T09:44:57.472Z,34.05
2023-08-13T09:47:50.390Z,32.68
2023-08-13T09:50:41.853Z,31.87
2023-08-13T09:53:33.940Z,32.01
2023-08-13T09:56:25.205Z,32.27
2023-08-13T09:59:18.232Z,33.04
2023-08-13T10:02:09.547Z,33.30
2023-08-13T10:05:03.357Z,33.54
2023-08-13T10:07:54.176Z,32.54
2023-08-13T10:10:44.727Z,31.98
2023-08-13T10:13:35.326Z,31.54
2023-08-13T10:16:29.520Z,31.47
2023-08-13T10:19:29.820Z,30.65
2023-08-13T10:22:36.736Z,29.47
2023-08-13T10:25:31.192Z,29.28
2023-08-13T10:28:33.562Z,28.93
2023-08-13T10:31:31.896Z,27.49
2023-08-13T10:34:43.542Z,26.99
2023-08-13T10:37:34.257Z,26.11
2023-08-13T10:40:25.271Z,26.18
2023-08-13T10:43:23.867Z,28.08
2023-08-13T10:46:22.044Z,29.55
2023-08-13T10:49:12.674Z,30.83
2023-08-13T10:52:03.942Z,32.28
2023-08-13T10:54:59.317Z,33.60
2023-08-13T10:57:54.369Z,35.39
2023-08-13T11:00:45.947Z,36.29
2023-08-13T11:03:36.810Z,35.44
2023-08-13T11:06:29.451Z,34.17
2023-08-13T11:09:20.435Z,32.59
2023-08-13T11:12:12.105Z,30.93
2023-08-13T11:15:02.841Z,29.77
2023-08-13T11:17:53.649Z,28.63
2023-08-13T11:20:46.008Z,27.57
2023-08-13T11:23:36.831Z,27.07
2023-08-13T11:26:31.317Z,27.76
2023-08-13T11:29:22.816Z,29.09
2023-08-13T11:32:16.989Z,30.55
2023-08-13T11:35:10.972Z,31.83
2023-08-13T11:38:02.178Z,31.82
2023-08-13T11:40:52.924Z,30.89
2023-08-13T11:43:44.169Z,29.55
2023-08-13T11:46:48.649Z,29.80
2023-08-13T11:49:45.646Z,30.36
2023-08-13T11:52:36.408Z,30.74
2023-08-13T11:55:42.757Z,29.95
2023-08-13T11:58:33.401Z,29.37
2023-08-13T12:01:26.374Z,29.07
2023-08-13T12:04:17.133Z,28.70
2023-08-13T12:07:11.508Z,28.73
2023-08-13T12:10:01.665Z,28.14
2023-08-13T12:12:52.889Z,27.50
2023-08-13T12:15:43.717Z,27.20
2023-08-13T12:18:34.322Z,28.22
2023-08-13T12:21:24.842Z,28.18
2023-08-13T12:24:15.384Z,27.33
2023-08-13T12:27:06.162Z,26.72
2023-08-13T12:29:56.766Z,25.41
2023-08-13T12:32:47.498Z,25.43
2023-08-13T12:35:38.207Z,24.94
2023-08-13T12:38:28.889Z,24.89
2023-08-13T12:41:30.435Z,25.97
2023-08-13T12:44:28.981Z,27.23
2023-08-13T12:47:19.721Z,28.57
2023-08-13T12:50:10.871Z,28.17
2023-08-13T12:53:04.656Z,27.11
2023-08-13T12:55:55.508Z,26.36
2023-08-13T12:58:47.775Z,25.60
2023-08-13T13:01:38.432Z,24.51
2023-08-13T13:04:30.850Z,24.90
2023-08-13T13:07:21.872Z,24.70
2023-08-13T13:10:12.873Z,24.49
2023-08-13T13:13:03.680Z,24.66
2023-08-13T13:15:54.464Z,25.97
2023-08-13T13:18:45.211Z,27.20
2023-08-13T13:21:35.766Z,28.94
2023-08-13T13:24:26.477Z,29.65
2023-08-13T13:27:16.924Z,28.92
2023-08-13T13:30:08.792Z,27.36
2023-08-13T13:32:59.556Z,26.08
2023-08-13T13:35:50.510Z,25.73
2023-08-13T13:38:41.219Z,25.98
2023-08-13T13:41:33.180Z,26.54
2023-08-13T13:44:24.362Z,27.75
2023-08-13T13:47:14.547Z,28.35
2023-08-13T13:50:05.419Z,29.02
2023-08-13T13:53:03.392Z,29.18
2023-08-13T13:56:02.009Z,28.29
2023-08-13T13:58:52.858Z,27.60
2023-08-13T14:01:44.990Z,27.70
2023-08-13T14:04:35.580Z,27.96
2023-08-13T14:07:26.095Z,27.98
2023-08-13T14:10:16.634Z,28.56
2023-08-13T14:13:08.075Z,28.53
2023-08-13T14:16:02.703Z,28.52
2023-08-13T14:18:56.274Z,28.79
2023-08-13T14:21:46.883Z,29.54
2023-08-13T14:24:37.521Z,29.77
2023-08-13T14:27:28.032Z,29.49
2023-08-13T14:30:18.754Z,30.08
2023-08-13T14:33:09.374Z,30.35
2023-08-13T14:36:00.571Z,31.54
2023-08-13T14:38:53.174Z,32.45
2023-08-13T14:41:43.474Z,33.25
2023-08-13T14:44:34.593Z,33.88
2023-08-13T14:47:25.878Z,33.73
2023-08-13T14:50:16.550Z,34.02
2023-08-13T14:53:07.139Z,34.74
2023-08-13T14:55:57.667Z,35.18
2023-08-13T14:58:48.156Z,35.29
2023-08-13T15:01:38.910Z,35.54
2023-08-13T15:04:29.403Z,36.16
2023-08-13T15:07:22.216Z,36.76
2023-08-13T15:10:12.797Z,36.98
2023-08-13T15:13:05.316Z,37.23
2023-08-13T15:15:56.021Z,37.48
2023-08-13T15:18:46.588Z,37.59
2023-08-13T15:21:37.011Z,38.22
2023-08-13T15:24:27.430Z,38.50
2023-08-13T15:27:17.818Z,38.61
2023-08-13T15:30:09.452Z,38.81
2023-08-13T15:32:59.646Z,39.23
2023-08-13T15:35:54.290Z,39.24
2023-08-13T15:38:44.815Z,39.38
2023-08-13T15:41:35.359Z,39.30
2023-08-13T15:44:25.941Z,39.89
2023-08-13T15:47:16.482Z,40.43
2023-08-13T15:50:07.518Z,40.23
2023-08-13T15:52:58.023Z,40.22
2023-08-13T15:55:48.822Z,40.61
2023-08-13T15:58:39.421Z,40.46
2023-08-13T16:01:30.482Z,40.39
2023-08-13T16:04:20.922Z,40.47
2023-08-13T16:07:11.426Z,40.91
2023-08-13T16:10:03.353Z,41.23
2023-08-13T16:12:53.727Z,41.91
2023-08-13T16:15:44.226Z,41.86
2023-08-13T16:18:34.817Z,42.12
2023-08-13T16:21:25.370Z,42.51
2023-08-13T16:24:15.835Z,42.60
2023-08-13T16:27:06.517Z,42.70
2023-08-13T16:29:57.688Z,42.90
2023-08-13T16:32:47.986Z,43.12
2023-08-13T16:35:38.543Z,43.33
2023-08-13T16:38:29.070Z,43.33
2023-08-13T16:41:20.415Z,43.42
2023-08-13T16:44:10.949Z,43.84
2023-08-13T16:47:01.646Z,43.64
2023-08-13T16:49:58.492Z,43.52
2023-08-13T16:52:55.760Z,43.41
2023-08-13T16:55:46.239Z,43.96
2023-08-13T16:58:36.727Z,43.94
2023-08-13T17:01:27.285Z,44.40
2023-08-13T17:04:17.590Z,44.86
2023-08-13T17:07:08.649Z,45.37
2023-08-13T17:09:59.229Z,45.59
2023-08-13T17:12:49.785Z,46.00
2023-08-13T17:15:40.145Z,46.55
2023-08-13T17:18:30.678Z,46.96
2023-08-13T17:21:21.379Z,47.05
2023-08-13T17:24:11.842Z,47.48
2023-08-13T17:27:04.540Z,47.92
2023-08-13T17:29:55.395Z,48.45
2023-08-13T17:32:46.035Z,48.87
2023-08-13T17:35:36.598Z,49.28
2023-08-13T17:38:27.113Z,49.79
2023-08-13T17:41:17.677Z,50.07
2023-08-13T17:44:08.504Z,50.49
2023-08-13T17:46:59.033Z,50.99
2023-08-13T17:49:49.642Z,51.36
2023-08-13T17:52:40.377Z,51.52
2023-08-13T17:55:31.273Z,51.78
2023-08-13T17:58:21.870Z,51.90
2023-08-13T18:01:12.384Z,52.06
2023-08-13T18:04:03.209Z,52.22
2023-08-13T18:06:53.770Z,52.36
2023-08-13T18:09:44.328Z,52.36
2023-08-13T18:12:35.171Z,52.44
2023-08-13T18:15:25.941Z,52.58
2023-08-13T18:18:16.716Z,52.72
2023-08-13T18:21:07.301Z,52.79
2023-08-13T18:23:57.870Z,52.84
2023-08-13T18:26:49.521Z,52.94
2023-08-13T18:29:40.122Z,53.17
2023-08-13T18:32:31.704Z,53.28
2023-08-13T18:35:22.478Z,53.69
2023-08-13T18:38:15.149Z,53.97
2023-08-13T18:41:09.113Z,54.13
2023-08-13T18:43:59.708Z,54.44
2023-08-13T18:46:50.598Z,54.73
2023-08-13T18:49:41.365Z,54.90
2023-08-13T18:52:31.987Z,55.11
2023-08-13T18:55:22.608Z,55.34
2023-08-13T18:58:13.173Z,55.58
2023-08-13T19:01:04.530Z,55.69
2023-08-13T19:03:54.690Z,55.91
2023-08-13T19:06:45.584Z,56.12
2023-08-13T19:09:36.197Z,56.44
2023-08-13T19:12:26.728Z,56.60
2023-08-13T19:15:17.343Z,56.55
2023-08-13T19:18:08.136Z,56.66
2023-08-13T19:20:59.037Z,56.85
2023-08-13T19:23:49.617Z,56.96
2023-08-13T19:26:40.301Z,57.08
2023-08-13T19:29:30.815Z,57.20
2023-08-13T19:32:21.238Z,57.23
2023-08-13T19:35:12.098Z,57.46
2023-08-13T19:38:02.808Z,57.49
2023-08-13T19:40:56.459Z,57.63
2023-08-13T19:43:46.982Z,57.81
2023-08-13T19:46:37.521Z,57.90
2023-08-13T19:49:28.145Z,58.10
2023-08-13T19:52:18.958Z,58.30
2023-08-13T19:55:12.288Z,58.32
2023-08-13T19:58:02.885Z,58.47
2023-08-13T20:00:53.467Z,58.63
2023-08-13T20:03:44.143Z,58.76
2023-08-13T20:06:34.973Z,58.83
2023-08-13T20:09:25.557Z,59.06
2023-08-13T20:12:16.592Z,59.19
2023-08-13T20:15:08.038Z,59.40
2023-08-13T20:17:58.576Z,59.69
2023-08-13T20:20:55.574Z,59.82
2023-08-13T20:23:46.309Z,59.91
2023-08-13T20:26:38.322Z,59.83
2023-08-13T20:29:28.965Z,59.89
2023-08-13T20:32:19.839Z,59.79
2023-08-13T20:35:11.664Z,59.66
2023-08-13T20:38:02.309Z,59.99
2023-08-13T20:40:58.161Z,60.13
2023-08-13T20:43:48.724Z,60.24
2023-08-13T20:46:39.431Z,60.36
2023-08-13T20:49:29.924Z,60.41
2023-08-13T20:52:20.542Z,60.22
2023-08-13T20:55:11.218Z,60.15
2023-08-13T20:58:01.804Z,60.02
2023-08-13T21:00:53.131Z,59.99
2023-08-13T21:03:43.895Z,60.05
2023-08-13T21:06:34.557Z,60.19
2023-08-13T21:09:27.294Z,60.19
2023-08-13T21:12:19.815Z,60.25
2023-08-13T21:15:11.176Z,60.06
2023-08-13T21:18:02.004Z,59.88
2023-08-13T21:20:52.708Z,59.87
2023-08-13T21:23:43.285Z,59.94
2023-08-13T21:26:35.770Z,60.06
2023-08-13T21:29:26.403Z,60.17
2023-08-13T21:32:17.286Z,60.11
2023-08-13T21:35:12.023Z,60.08
2023-08-13T21:38:03.393Z,60.26
2023-08-13T21:40:54.117Z,60.40
2023-08-13T21:43:45.091Z,60.49
2023-08-13T21:46:35.700Z,60.49
2023-08-13T21:49:27.088Z,60.55
2023-08-13T21:52:18.799Z,60.77
2023-08-13T21:55:10.520Z,60.83
2023-08-13T21:58:01.226Z,60.95
2023-08-13T22:00:51.896Z,61.10
2023-08-13T22:03:42.717Z,61.18
2023-08-13T22:06:33.414Z,61.30
2023-08-13T22:09:24.081Z,61.54
2023-08-13T22:12:15.037Z,61.55
2023-08-13T22:15:06.764Z,61.63
2023-08-13T22:17:57.514Z,61.81
2023-08-13T22:20:48.677Z,62.01
2023-08-13T22:23:39.352Z,62.05
2023-08-13T22:26:30.031Z,62.00
2023-08-13T22:29:20.747Z,62.07
2023-08-13T22:32:11.630Z,62.19
2023-08-13T22:35:02.493Z,62.28
2023-08-13T22:37:53.033Z,62.45
2023-08-13T22:40:43.644Z,62.58
2023-08-13T22:43:34.300Z,62.90
2023-08-13T22:46:25.043Z,62.95
2023-08-13T22:49:30.679Z,63.09
2023-08-13T22:52:21.294Z,63.11
2023-08-13T22:55:12.204Z,63.31
2023-08-13T22:58:02.955Z,63.61
2023-08-13T23:00:53.488Z,63.63
2023-08-13T23:03:44.219Z,63.82
2023-08-13T23:06:35.174Z,63.90
2023-08-13T23:09:25.922Z,64.10
2023-08-13T23:12:16.758Z,64.10
2023-08-13T23:15:08.342Z,64.04
2023-08-13T23:17:59.011Z,64.17
2023-08-13T23:20:49.779Z,64.41
2023-08-13T23:23:40.371Z,64.64
2023-08-13T23:26:31.131Z,64.85
2023-08-13T23:29:22.351Z,64.80
2023-08-13T23:32:13.555Z,64.87
2023-08-13T23:35:04.237Z,64.92
2023-08-13T23:37:54.936Z,64.99
2023-08-13T23:40:46.378Z,65.15
2023-08-13T23:43:36.900Z,65.30
2023-08-13T23:46:27.753Z,65.44
2023-08-13T23:49:18.666Z,65.44
2023-08-13T23:52:09.627Z,65.45
2023-08-13T23:55:00.349Z,65.76
2023-08-13T23:57:50.964Z,65.88
